sensor_id;sensor_type;location;lat;lon;timestamp;temperature;humidity
16060;DHT22;8134;49.552;7.632;2022-11-15T06:34:14;10.90;99.90
16060;DHT22;8134;49.552;7.632;2022-11-15T06:36:40;10.90;99.90
16060;DHT22;8134;49.552;7.632;2022-11-15T06:39:05;10.80;99.90
16060;DHT22;8134;49.552;7.632;2022-11-15T06:41:33;10.80;99.90
16060;DHT22;8134;49.552;7.632;2022-11-15T06:43:59;10.90;99.90
16060;DHT22;8134;49.552;7.632;2022-11-15T06:46:24;10.80;99.90
16060;DHT22;8134;49.552;7.632;2022-11-15T06:48:50;10.80;99.90
16060;DHT22;8134;49.552;7.632;2022-11-15T06:51:16;10.80;99.90
16060;DHT22;8134;49.552;7.632;2022-11-15T06:53:41;10.80;99.90
16060;DHT22;8134;49.552;7.632;2022-11-15T06:56:07;10.70;99.90
16060;DHT22;8134;49.552;7.632;2022-11-15T06:58:32;10.80;99.90
16060;DHT22;8134;49.552;7.632;2022-11-15T07:01:02;10.70;99.90
16060;DHT22;8134;49.552;7.632;2022-11-15T07:03:27;10.80;99.90
16060;DHT22;8134;49.552;7.632;2022-11-15T07:05:53;10.70;99.90
16060;DHT22;8134;49.552;7.632;2022-11-15T07:08:20;10.80;99.90
16060;DHT22;8134;49.552;7.632;2022-11-15T07:10:45;10.80;99.90
16060;DHT22;8134;49.552;7.632;2022-11-15T07:13:11;10.80;99.90
16060;DHT22;8134;49.552;7.632;2022-11-15T07:15:36;10.70;99.90
16060;DHT22;8134;49.552;7.632;2022-11-15T07:18:02;10.70;99.90
16060;DHT22;8134;49.552;7.632;2022-11-15T07:20:27;10.70;99.90
16060;DHT22;8134;49.552;7.632;2022-11-15T07:22:59;10.70;99.90
16060;DHT22;8134;49.552;7.632;2022-11-15T07:25:24;10.70;99.90
16060;DHT22;8134;49.552;7.632;2022-11-15T07:27:56;10.70;99.90
16060;DHT22;8134;49.552;7.632;2022-11-15T07:30:22;10.60;99.90
16060;DHT22;8134;49.552;7.632;2022-11-15T07:32:51;10.60;99.90
16060;DHT22;8134;49.552;7.632;2022-11-15T07:35:17;10.70;99.90
16060;DHT22;8134;49.552;7.632;2022-11-15T07:37:42;10.50;99.90
16060;DHT22;8134;49.552;7.632;2022-11-15T07:40:08;10.80;99.90
16060;DHT22;8134;49.552;7.632;2022-11-15T07:42:34;10.70;99.90
16060;DHT22;8134;49.552;7.632;2022-11-15T07:45:18;10.70;99.90
16060;DHT22;8134;49.552;7.632;2022-11-15T07:47:47;10.70;99.90
16060;DHT22;8134;49.552;7.632;2022-11-15T07:50:12;10.70;99.90
16060;DHT22;8134;49.552;7.632;2022-11-15T07:52:38;10.70;99.90
16060;DHT22;8134;49.552;7.632;2022-11-15T07:55:03;10.70;99.90
16060;DHT22;8134;49.552;7.632;2022-11-15T07:57:29;10.80;99.90
16060;DHT22;8134;49.552;7.632;2022-11-15T07:59:55;10.90;99.90
16060;DHT22;8134;49.552;7.632;2022-11-15T08:02:20;11.00;99.90
16060;DHT22;8134;49.552;7.632;2022-11-15T08:04:46;10.90;99.90
16060;DHT22;8134;49.552;7.632;2022-11-15T08:07:12;10.80;99.90
16060;DHT22;8134;49.552;7.632;2022-11-15T08:09:37;10.90;99.90
16060;DHT22;8134;49.552;7.632;2022-11-15T08:12:03;10.90;99.90
16060;DHT22;8134;49.552;7.632;2022-11-15T08:14:28;11.00;99.90
16060;DHT22;8134;49.552;7.632;2022-11-15T08:16:54;11.00;99.90
16060;DHT22;8134;49.552;7.632;2022-11-15T08:19:20;11.10;99.90
16060;DHT22;8134;49.552;7.632;2022-11-15T08:21:46;11.10;99.90
16060;DHT22;8134;49.552;7.632;2022-11-15T08:24:11;11.20;99.90
16060;DHT22;8134;49.552;7.632;2022-11-15T08:26:36;11.20;99.90
16060;DHT22;8134;49.552;7.632;2022-11-15T08:29:02;11.30;99.90
16060;DHT22;8134;49.552;7.632;2022-11-15T08:31:28;11.30;99.90
16060;DHT22;8134;49.552;7.632;2022-11-15T08:33:53;11.50;99.90
16060;DHT22;8134;49.552;7.632;2022-11-15T08:36:19;11.60;99.90
16060;DHT22;8134;49.552;7.632;2022-11-15T08:38:44;11.60;99.90
16060;DHT22;8134;49.552;7.632;2022-11-15T08:41:12;11.80;99.90
16060;DHT22;8134;49.552;7.632;2022-11-15T08:43:38;11.90;99.90
16060;DHT22;8134;49.552;7.632;2022-11-15T08:46:04;12.10;99.90
16060;DHT22;8134;49.552;7.632;2022-11-15T08:48:29;12.10;99.90
16060;DHT22;8134;49.552;7.632;2022-11-15T08:50:55;12.10;99.90
16060;DHT22;8134;49.552;7.632;2022-11-15T08:53:21;12.20;99.90
16060;DHT22;8134;49.552;7.632;2022-11-15T08:55:46;12.30;99.90
16060;DHT22;8134;49.552;7.632;2022-11-15T08:58:12;12.30;99.90
16060;DHT22;8134;49.552;7.632;2022-11-15T09:00:37;12.30;99.90
16060;DHT22;8134;49.552;7.632;2022-11-15T09:03:03;12.40;99.90
16060;DHT22;8134;49.552;7.632;2022-11-15T09:05:29;12.30;99.90
16060;DHT22;8134;49.552;7.632;2022-11-15T09:07:54;12.40;99.90
16060;DHT22;8134;49.552;7.632;2022-11-15T09:10:20;12.60;99.90
16060;DHT22;8134;49.552;7.632;2022-11-15T09:12:46;12.60;99.90
16060;DHT22;8134;49.552;7.632;2022-11-15T09:15:14;12.60;99.90
16060;DHT22;8134;49.552;7.632;2022-11-15T09:17:39;12.60;99.90
16060;DHT22;8134;49.552;7.632;2022-11-15T09:20:05;12.60;99.90
16060;DHT22;8134;49.552;7.632;2022-11-15T09:22:31;12.60;99.90
16060;DHT22;8134;49.552;7.632;2022-11-15T09:24:56;12.60;99.90
16060;DHT22;8134;49.552;7.632;2022-11-15T09:27:22;12.70;99.90
16060;DHT22;8134;49.552;7.632;2022-11-15T09:29:47;12.70;99.90
16060;DHT22;8134;49.552;7.632;2022-11-15T09:32:13;12.70;99.90
16060;DHT22;8134;49.552;7.632;2022-11-15T09:34:38;12.70;99.90
16060;DHT22;8134;49.552;7.632;2022-11-15T09:37:04;12.70;99.90
16060;DHT22;8134;49.552;7.632;2022-11-15T09:39:29;12.80;99.90
16060;DHT22;8134;49.552;7.632;2022-11-15T09:41:58;12.80;99.90
16060;DHT22;8134;49.552;7.632;2022-11-15T09:44:40;12.90;99.90
16060;DHT22;8134;49.552;7.632;2022-11-15T09:49:55;13.00;99.90
16060;DHT22;8134;49.552;7.632;2022-11-15T09:52:22;13.10;99.90
16060;DHT22;8134;49.552;7.632;2022-11-15T09:54:49;13.10;99.90
16060;DHT22;8134;49.552;7.632;2022-11-15T09:57:31;13.20;99.90
16060;DHT22;8134;49.552;7.632;2022-11-15T10:02:56;13.20;99.90
16060;DHT22;8134;49.552;7.632;2022-11-15T10:05:23;13.20;99.90
16060;DHT22;8134;49.552;7.632;2022-11-15T10:07:59;13.20;99.90
16060;DHT22;8134;49.552;7.632;2022-11-15T10:13:31;13.20;99.90
16060;DHT22;8134;49.552;7.632;2022-11-15T10:18:47;13.30;99.90
16060;DHT22;8134;49.552;7.632;2022-11-15T10:21:17;13.40;99.90
16060;DHT22;8134;49.552;7.632;2022-11-15T10:23:43;13.40;99.90
16060;DHT22;8134;49.552;7.632;2022-11-15T10:26:11;13.40;99.90
16060;DHT22;8134;49.552;7.632;2022-11-15T10:28:37;13.40;99.90
16060;DHT22;8134;49.552;7.632;2022-11-15T10:31:11;13.40;99.90
16060;DHT22;8134;49.552;7.632;2022-11-15T10:33:45;13.40;99.90
16060;DHT22;8134;49.552;7.632;2022-11-15T10:38:50;13.50;99.90
16060;DHT22;8134;49.552;7.632;2022-11-15T10:43:41;13.70;99.90
16060;DHT22;8134;49.552;7.632;2022-11-15T10:46:23;13.70;99.90
16060;DHT22;8134;49.552;7.632;2022-11-15T10:48:48;13.80;99.90
16060;DHT22;8134;49.552;7.632;2022-11-15T10:51:26;13.80;99.90
16060;DHT22;8134;49.552;7.632;2022-11-15T10:53:57;13.80;99.90
16060;DHT22;8134;49.552;7.632;2022-11-15T10:56:23;13.80;99.90
16060;DHT22;8134;49.552;7.632;2022-11-15T10:58:53;13.80;99.90
16060;DHT22;8134;49.552;7.632;2022-11-15T11:01:24;13.90;99.90
16060;DHT22;8134;49.552;7.632;2022-11-15T11:04:00;13.90;99.90
16060;DHT22;8134;49.552;7.632;2022-11-15T11:06:26;13.90;99.90
16060;DHT22;8134;49.552;7.632;2022-11-15T11:11:20;14.00;99.90
16060;DHT22;8134;49.552;7.632;2022-11-15T11:13:45;14.10;99.90
16060;DHT22;8134;49.552;7.632;2022-11-15T11:21:30;14.20;99.90
16060;DHT22;8134;49.552;7.632;2022-11-15T11:24:10;14.20;99.90
16060;DHT22;8134;49.552;7.632;2022-11-15T11:26:42;14.20;99.90
16060;DHT22;8134;49.552;7.632;2022-11-15T11:36:55;14.30;99.90
16060;DHT22;8134;49.552;7.632;2022-11-15T11:42:13;14.40;99.90
16060;DHT22;8134;49.552;7.632;2022-11-15T11:47:37;14.40;99.90
16060;DHT22;8134;49.552;7.632;2022-11-15T11:50:10;14.50;99.90
16060;DHT22;8134;49.552;7.632;2022-11-15T11:52:42;14.60;99.90
16060;DHT22;8134;49.552;7.632;2022-11-15T11:55:15;14.60;99.90
16060;DHT22;8134;49.552;7.632;2022-11-15T12:00:15;14.70;99.90
16060;DHT22;8134;49.552;7.632;2022-11-15T12:02:43;14.80;99.90
16060;DHT22;8134;49.552;7.632;2022-11-15T12:05:15;14.80;99.90
16060;DHT22;8134;49.552;7.632;2022-11-15T12:07:41;14.80;99.90
16060;DHT22;8134;49.552;7.632;2022-11-15T12:15:21;14.60;99.90
16060;DHT22;8134;49.552;7.632;2022-11-15T12:17:47;14.60;99.90
16060;DHT22;8134;49.552;7.632;2022-11-15T12:20:17;14.50;99.90
16060;DHT22;8134;49.552;7.632;2022-11-15T12:25:32;14.50;99.90
16060;DHT22;8134;49.552;7.632;2022-11-15T12:28:01;14.50;99.90
16060;DHT22;8134;49.552;7.632;2022-11-15T12:30:38;14.40;99.90
16060;DHT22;8134;49.552;7.632;2022-11-15T12:33:15;14.40;99.90
16060;DHT22;8134;49.552;7.632;2022-11-15T12:35:57;14.30;99.90
16060;DHT22;8134;49.552;7.632;2022-11-15T12:41:17;14.30;99.90
16060;DHT22;8134;49.552;7.632;2022-11-15T12:43:44;14.30;99.90
16060;DHT22;8134;49.552;7.632;2022-11-15T12:46:11;14.20;99.90
16060;DHT22;8134;49.552;7.632;2022-11-15T12:51:03;14.30;99.90
16060;DHT22;8134;49.552;7.632;2022-11-15T12:53:32;14.30;99.90
16060;DHT22;8134;49.552;7.632;2022-11-15T12:58:27;14.40;99.90
16060;DHT22;8134;49.552;7.632;2022-11-15T13:00:54;14.50;99.90
16060;DHT22;8134;49.552;7.632;2022-11-15T13:03:21;14.40;99.90
16060;DHT22;8134;49.552;7.632;2022-11-15T13:05:53;14.40;99.90
16060;DHT22;8134;49.552;7.632;2022-11-15T13:14:34;14.50;99.90
16060;DHT22;8134;49.552;7.632;2022-11-15T13:16:56;14.60;99.90
16060;DHT22;8134;49.552;7.632;2022-11-15T13:19:22;14.60;99.90
16060;DHT22;8134;49.552;7.632;2022-11-15T13:21:49;14.60;99.90
16060;DHT22;8134;49.552;7.632;2022-11-15T13:24:33;14.60;99.90
16060;DHT22;8134;49.552;7.632;2022-11-15T13:26:58;14.60;99.90
16060;DHT22;8134;49.552;7.632;2022-11-15T13:29:24;14.60;99.90
16060;DHT22;8134;49.552;7.632;2022-11-15T13:31:50;14.70;99.90
16060;DHT22;8134;49.552;7.632;2022-11-15T13:34:26;14.70;99.90
16060;DHT22;8134;49.552;7.632;2022-11-15T13:36:52;14.70;99.90
16060;DHT22;8134;49.552;7.632;2022-11-15T13:41:53;14.70;99.90
16060;DHT22;8134;49.552;7.632;2022-11-15T13:44:23;14.70;99.90
16060;DHT22;8134;49.552;7.632;2022-11-15T13:46:49;14.60;99.90
16060;DHT22;8134;49.552;7.632;2022-11-15T13:49:28;14.60;99.90
16060;DHT22;8134;49.552;7.632;2022-11-15T13:51:54;14.60;99.90
16060;DHT22;8134;49.552;7.632;2022-11-15T13:56:53;14.60;99.90
16060;DHT22;8134;49.552;7.632;2022-11-15T14:01:49;14.50;99.90
16060;DHT22;8134;49.552;7.632;2022-11-15T14:04:17;14.50;99.90
16060;DHT22;8134;49.552;7.632;2022-11-15T14:06:44;14.50;99.90
16060;DHT22;8134;49.552;7.632;2022-11-15T14:11:36;14.50;99.90
16060;DHT22;8134;49.552;7.632;2022-11-15T14:16:32;14.50;99.90
16060;DHT22;8134;49.552;7.632;2022-11-15T14:18:58;14.50;99.90
16060;DHT22;8134;49.552;7.632;2022-11-15T14:21:23;14.50;99.90
16060;DHT22;8134;49.552;7.632;2022-11-15T14:23:49;14.40;99.90
16060;DHT22;8134;49.552;7.632;2022-11-15T14:26:26;14.40;99.90
16060;DHT22;8134;49.552;7.632;2022-11-15T14:28:52;14.30;99.90
16060;DHT22;8134;49.552;7.632;2022-11-15T14:31:17;14.30;99.90
16060;DHT22;8134;49.552;7.632;2022-11-15T14:33:44;14.40;99.90
16060;DHT22;8134;49.552;7.632;2022-11-15T14:36:20;14.30;99.90
16060;DHT22;8134;49.552;7.632;2022-11-15T14:38:46;14.30;99.90
16060;DHT22;8134;49.552;7.632;2022-11-15T14:41:17;14.30;99.90
16060;DHT22;8134;49.552;7.632;2022-11-15T14:43:43;14.30;99.90
16060;DHT22;8134;49.552;7.632;2022-11-15T14:46:08;14.20;99.90
16060;DHT22;8134;49.552;7.632;2022-11-15T14:48:34;14.10;99.90
16060;DHT22;8134;49.552;7.632;2022-11-15T14:51:00;14.00;99.90
16060;DHT22;8134;49.552;7.632;2022-11-15T14:53:25;14.00;99.90
16060;DHT22;8134;49.552;7.632;2022-11-15T14:55:50;14.00;99.90
16060;DHT22;8134;49.552;7.632;2022-11-15T14:58:16;13.90;99.90
16060;DHT22;8134;49.552;7.632;2022-11-15T15:00:42;13.80;99.90
16060;DHT22;8134;49.552;7.632;2022-11-15T15:03:08;13.70;99.90
16060;DHT22;8134;49.552;7.632;2022-11-15T15:05:35;13.50;99.90
16060;DHT22;8134;49.552;7.632;2022-11-15T15:08:01;13.50;99.90
16060;DHT22;8134;49.552;7.632;2022-11-15T15:10:30;13.60;99.90
16060;DHT22;8134;49.552;7.632;2022-11-15T15:12:56;13.50;99.90
16060;DHT22;8134;49.552;7.632;2022-11-15T15:15:24;13.50;99.90
16060;DHT22;8134;49.552;7.632;2022-11-15T15:17:50;13.50;99.90
16060;DHT22;8134;49.552;7.632;2022-11-15T15:20:17;13.50;99.90
16060;DHT22;8134;49.552;7.632;2022-11-15T15:22:43;13.50;99.90
16060;DHT22;8134;49.552;7.632;2022-11-15T15:25:27;13.40;99.90
16060;DHT22;8134;49.552;7.632;2022-11-15T15:27:53;13.40;99.90
16060;DHT22;8134;49.552;7.632;2022-11-15T15:30:19;13.40;99.90
16060;DHT22;8134;49.552;7.632;2022-11-15T15:32:45;13.30;99.90
16060;DHT22;8134;49.552;7.632;2022-11-15T15:35:11;13.40;99.90
16060;DHT22;8134;49.552;7.632;2022-11-15T15:37:37;13.30;99.90
16060;DHT22;8134;49.552;7.632;2022-11-15T15:40:03;13.40;99.90
16060;DHT22;8134;49.552;7.632;2022-11-15T15:42:28;13.20;99.90
16060;DHT22;8134;49.552;7.632;2022-11-15T15:44:54;13.20;99.90
16060;DHT22;8134;49.552;7.632;2022-11-15T15:47:20;13.10;99.90
16060;DHT22;8134;49.552;7.632;2022-11-15T15:49:46;13.00;99.90
16060;DHT22;8134;49.552;7.632;2022-11-15T15:52:12;12.90;99.90
16060;DHT22;8134;49.552;7.632;2022-11-15T15:54:38;12.90;99.90
16060;DHT22;8134;49.552;7.632;2022-11-15T15:57:04;12.80;99.90
16060;DHT22;8134;49.552;7.632;2022-11-15T15:59:30;12.70;99.90
16060;DHT22;8134;49.552;7.632;2022-11-15T16:01:55;12.70;99.90
16060;DHT22;8134;49.552;7.632;2022-11-15T16:04:21;12.60;99.90
16060;DHT22;8134;49.552;7.632;2022-11-15T16:06:46;12.60;99.90
16060;DHT22;8134;49.552;7.632;2022-11-15T16:09:16;12.60;99.90
16060;DHT22;8134;49.552;7.632;2022-11-15T16:11:43;12.60;99.90
16060;DHT22;8134;49.552;7.632;2022-11-15T16:14:08;12.50;99.90
16060;DHT22;8134;49.552;7.632;2022-11-15T16:16:34;12.40;99.90
16060;DHT22;8134;49.552;7.632;2022-11-15T16:19:00;12.30;99.90
16060;DHT22;8134;49.552;7.632;2022-11-15T16:21:26;12.30;99.90
16060;DHT22;8134;49.552;7.632;2022-11-15T16:23:52;12.20;99.90
16060;DHT22;8134;49.552;7.632;2022-11-15T16:26:21;12.20;99.90
16060;DHT22;8134;49.552;7.632;2022-11-15T16:28:47;12.10;99.90
16060;DHT22;8134;49.552;7.632;2022-11-15T16:31:13;12.10;99.90
16060;DHT22;8134;49.552;7.632;2022-11-15T16:33:38;12.10;99.90
16060;DHT22;8134;49.552;7.632;2022-11-15T16:36:05;12.20;99.90
16060;DHT22;8134;49.552;7.632;2022-11-15T16:38:31;12.20;99.90
16060;DHT22;8134;49.552;7.632;2022-11-15T16:40:56;12.20;99.90
16060;DHT22;8134;49.552;7.632;2022-11-15T16:43:22;12.20;99.90
16060;DHT22;8134;49.552;7.632;2022-11-15T16:45:48;12.20;99.90
16060;DHT22;8134;49.552;7.632;2022-11-15T16:48:19;12.20;99.90
16060;DHT22;8134;49.552;7.632;2022-11-15T16:50:45;12.20;99.90
16060;DHT22;8134;49.552;7.632;2022-11-15T16:53:11;12.30;99.90
16060;DHT22;8134;49.552;7.632;2022-11-15T16:55:36;12.30;99.90
16060;DHT22;8134;49.552;7.632;2022-11-15T16:58:02;12.30;99.90
16060;DHT22;8134;49.552;7.632;2022-11-15T17:00:27;12.30;99.90
16060;DHT22;8134;49.552;7.632;2022-11-15T17:02:53;12.30;99.90
16060;DHT22;8134;49.552;7.632;2022-11-15T17:05:21;12.20;99.90
16060;DHT22;8134;49.552;7.632;2022-11-15T17:07:48;12.20;99.90
16060;DHT22;8134;49.552;7.632;2022-11-15T17:10:14;12.30;99.90
16060;DHT22;8134;49.552;7.632;2022-11-15T17:12:40;12.30;99.90
16060;DHT22;8134;49.552;7.632;2022-11-15T17:15:06;12.30;99.90
16060;DHT22;8134;49.552;7.632;2022-11-15T17:17:31;12.30;99.90
16060;DHT22;8134;49.552;7.632;2022-11-15T17:19:57;12.30;99.90
16060;DHT22;8134;49.552;7.632;2022-11-15T17:22:22;12.20;99.90
16060;DHT22;8134;49.552;7.632;2022-11-15T17:24:48;12.20;99.90
16060;DHT22;8134;49.552;7.632;2022-11-15T17:27:13;12.20;99.90
16060;DHT22;8134;49.552;7.632;2022-11-15T17:29:39;12.40;99.90
16060;DHT22;8134;49.552;7.632;2022-11-15T17:32:05;12.20;99.90
16060;DHT22;8134;49.552;7.632;2022-11-15T17:34:31;12.10;99.90
16060;DHT22;8134;49.552;7.632;2022-11-15T17:37:15;12.20;99.90
16060;DHT22;8134;49.552;7.632;2022-11-15T17:39:40;12.20;99.90
16060;DHT22;8134;49.552;7.632;2022-11-15T17:42:06;12.20;99.90
16060;DHT22;8134;49.552;7.632;2022-11-15T17:44:31;12.20;99.90
16060;DHT22;8134;49.552;7.632;2022-11-15T17:46:57;12.20;99.90
16060;DHT22;8134;49.552;7.632;2022-11-15T17:49:22;12.20;99.90
16060;DHT22;8134;49.552;7.632;2022-11-15T17:51:48;12.20;99.90
16060;DHT22;8134;49.552;7.632;2022-11-15T17:54:13;12.30;99.90
16060;DHT22;8134;49.552;7.632;2022-11-15T17:56:39;12.20;99.90
16060;DHT22;8134;49.552;7.632;2022-11-15T17:59:04;12.10;99.90
16060;DHT22;8134;49.552;7.632;2022-11-15T18:01:31;12.20;99.90
16060;DHT22;8134;49.552;7.632;2022-11-15T18:03:57;12.20;99.90
16060;DHT22;8134;49.552;7.632;2022-11-15T18:06:25;12.30;99.90
16060;DHT22;8134;49.552;7.632;2022-11-15T18:08:51;12.10;99.90
16060;DHT22;8134;49.552;7.632;2022-11-15T18:13:47;12.10;99.90
16060;DHT22;8134;49.552;7.632;2022-11-15T18:16:14;12.20;99.90
16060;DHT22;8134;49.552;7.632;2022-11-15T18:18:40;12.10;99.90
16060;DHT22;8134;49.552;7.632;2022-11-15T18:21:06;12.20;99.90
16060;DHT22;8134;49.552;7.632;2022-11-15T18:23:33;12.30;99.90
16060;DHT22;8134;49.552;7.632;2022-11-15T18:25:59;12.20;99.90
16060;DHT22;8134;49.552;7.632;2022-11-15T18:28:32;12.20;99.90
16060;DHT22;8134;49.552;7.632;2022-11-15T18:30:58;12.20;99.90
16060;DHT22;8134;49.552;7.632;2022-11-15T18:33:24;12.10;99.90
16060;DHT22;8134;49.552;7.632;2022-11-15T18:35:56;12.10;99.90
16060;DHT22;8134;49.552;7.632;2022-11-15T18:38:22;12.10;99.90
16060;DHT22;8134;49.552;7.632;2022-11-15T18:40:48;12.10;99.90
16060;DHT22;8134;49.552;7.632;2022-11-15T18:43:13;12.00;99.90
16060;DHT22;8134;49.552;7.632;2022-11-15T18:45:39;12.00;99.90
16060;DHT22;8134;49.552;7.632;2022-11-15T18:48:04;11.90;99.90
16060;DHT22;8134;49.552;7.632;2022-11-15T18:50:30;11.90;99.90
16060;DHT22;8134;49.552;7.632;2022-11-15T18:52:55;12.00;99.90
16060;DHT22;8134;49.552;7.632;2022-11-15T18:55:21;12.10;99.90
16060;DHT22;8134;49.552;7.632;2022-11-15T18:57:46;12.00;99.90
16060;DHT22;8134;49.552;7.632;2022-11-15T19:00:12;12.00;99.90
16060;DHT22;8134;49.552;7.632;2022-11-15T19:02:37;12.00;99.90
16060;DHT22;8134;49.552;7.632;2022-11-15T19:05:03;11.90;99.90
16060;DHT22;8134;49.552;7.632;2022-11-15T19:07:28;11.90;99.90
16060;DHT22;8134;49.552;7.632;2022-11-15T19:09:54;11.90;99.90
16060;DHT22;8134;49.552;7.632;2022-11-15T19:12:20;11.90;99.90
16060;DHT22;8134;49.552;7.632;2022-11-15T19:14:45;11.90;99.90
16060;DHT22;8134;49.552;7.632;2022-11-15T19:17:11;11.90;99.90
16060;DHT22;8134;49.552;7.632;2022-11-15T19:19:36;12.00;99.90
16060;DHT22;8134;49.552;7.632;2022-11-15T19:22:02;11.90;99.90
16060;DHT22;8134;49.552;7.632;2022-11-15T19:24:27;11.90;99.90
16060;DHT22;8134;49.552;7.632;2022-11-15T19:26:54;12.00;99.90
16060;DHT22;8134;49.552;7.632;2022-11-15T19:29:19;11.80;99.90
16060;DHT22;8134;49.552;7.632;2022-11-15T19:31:45;11.90;99.90
16060;DHT22;8134;49.552;7.632;2022-11-15T19:34:12;11.90;99.90
16060;DHT22;8134;49.552;7.632;2022-11-15T19:36:39;11.90;99.90
16060;DHT22;8134;49.552;7.632;2022-11-15T19:39:05;12.00;99.90
16060;DHT22;8134;49.552;7.632;2022-11-15T19:41:37;11.80;99.90
16060;DHT22;8134;49.552;7.632;2022-11-15T19:44:03;11.80;99.90
16060;DHT22;8134;49.552;7.632;2022-11-15T19:46:29;11.70;99.90
16060;DHT22;8134;49.552;7.632;2022-11-15T19:48:55;11.80;99.90
16060;DHT22;8134;49.552;7.632;2022-11-15T19:51:21;11.80;99.90
16060;DHT22;8134;49.552;7.632;2022-11-15T19:53:47;11.90;99.90
16060;DHT22;8134;49.552;7.632;2022-11-15T19:56:14;11.80;99.90
16060;DHT22;8134;49.552;7.632;2022-11-15T19:58:40;11.80;99.90
16060;DHT22;8134;49.552;7.632;2022-11-15T20:01:13;11.80;99.90
16060;DHT22;8134;49.552;7.632;2022-11-15T20:03:40;11.90;99.90
16060;DHT22;8134;49.552;7.632;2022-11-15T20:06:07;11.80;99.90
16060;DHT22;8134;49.552;7.632;2022-11-15T20:08:33;11.80;99.90
16060;DHT22;8134;49.552;7.632;2022-11-15T20:10:58;11.80;99.90
16060;DHT22;8134;49.552;7.632;2022-11-15T20:13:24;11.80;99.90
16060;DHT22;8134;49.552;7.632;2022-11-15T20:15:50;11.80;99.90
16060;DHT22;8134;49.552;7.632;2022-11-15T20:18:15;11.80;99.90
16060;DHT22;8134;49.552;7.632;2022-11-15T20:20:41;11.80;99.90
16060;DHT22;8134;49.552;7.632;2022-11-15T20:23:07;11.80;99.90
16060;DHT22;8134;49.552;7.632;2022-11-15T20:25:33;11.90;99.90
16060;DHT22;8134;49.552;7.632;2022-11-15T20:28:05;11.80;99.90
16060;DHT22;8134;49.552;7.632;2022-11-15T20:30:31;11.90;99.90
16060;DHT22;8134;49.552;7.632;2022-11-15T20:32:57;11.90;99.90
16060;DHT22;8134;49.552;7.632;2022-11-15T20:35:22;12.00;99.90
16060;DHT22;8134;49.552;7.632;2022-11-15T20:37:48;12.00;99.90
16060;DHT22;8134;49.552;7.632;2022-11-15T20:40:13;12.00;99.90
16060;DHT22;8134;49.552;7.632;2022-11-15T20:42:39;12.00;99.90
16060;DHT22;8134;49.552;7.632;2022-11-15T20:45:04;11.80;99.90
16060;DHT22;8134;49.552;7.632;2022-11-15T20:47:30;11.90;99.90
16060;DHT22;8134;49.552;7.632;2022-11-15T20:49:56;11.90;99.90
16060;DHT22;8134;49.552;7.632;2022-11-15T20:52:21;11.90;99.90
16060;DHT22;8134;49.552;7.632;2022-11-15T20:54:47;12.00;99.90
16060;DHT22;8134;49.552;7.632;2022-11-15T20:57:12;11.90;99.90
16060;DHT22;8134;49.552;7.632;2022-11-15T20:59:38;11.90;99.90
16060;DHT22;8134;49.552;7.632;2022-11-15T21:02:03;11.90;99.90
16060;DHT22;8134;49.552;7.632;2022-11-15T21:04:29;11.90;99.90
16060;DHT22;8134;49.552;7.632;2022-11-15T21:06:54;11.80;99.90
16060;DHT22;8134;49.552;7.632;2022-11-15T21:09:22;11.90;99.90
16060;DHT22;8134;49.552;7.632;2022-11-15T21:12:08;11.90;99.90
16060;DHT22;8134;49.552;7.632;2022-11-15T21:14:35;11.80;99.90
16060;DHT22;8134;49.552;7.632;2022-11-15T21:17:01;11.80;99.90
16060;DHT22;8134;49.552;7.632;2022-11-15T21:19:26;11.90;99.90
16060;DHT22;8134;49.552;7.632;2022-11-15T21:21:52;11.90;99.90
16060;DHT22;8134;49.552;7.632;2022-11-15T21:24:18;11.70;99.90
16060;DHT22;8134;49.552;7.632;2022-11-15T21:26:44;11.70;99.90
16060;DHT22;8134;49.552;7.632;2022-11-15T21:29:10;11.70;99.90
16060;DHT22;8134;49.552;7.632;2022-11-15T21:31:44;11.70;99.90
16060;DHT22;8134;49.552;7.632;2022-11-15T21:34:10;11.60;99.90
16060;DHT22;8134;49.552;7.632;2022-11-15T21:36:35;11.70;99.90
16060;DHT22;8134;49.552;7.632;2022-11-15T21:39:01;11.60;99.90
16060;DHT22;8134;49.552;7.632;2022-11-15T21:41:27;11.70;99.90
16060;DHT22;8134;49.552;7.632;2022-11-15T21:43:56;11.70;99.90
16060;DHT22;8134;49.552;7.632;2022-11-15T21:46:21;11.80;99.90
16060;DHT22;8134;49.552;7.632;2022-11-15T21:48:47;11.70;99.90
16060;DHT22;8134;49.552;7.632;2022-11-15T21:51:12;11.80;99.90
16060;DHT22;8134;49.552;7.632;2022-11-15T21:53:38;11.80;99.90
16060;DHT22;8134;49.552;7.632;2022-11-15T21:56:04;11.90;99.90
16060;DHT22;8134;49.552;7.632;2022-11-15T21:58:29;11.90;99.90
16060;DHT22;8134;49.552;7.632;2022-11-15T22:00:55;11.80;99.90
16060;DHT22;8134;49.552;7.632;2022-11-15T22:03:39;11.90;99.90
16060;DHT22;8134;49.552;7.632;2022-11-15T22:06:05;11.90;99.90
16060;DHT22;8134;49.552;7.632;2022-11-15T22:08:30;11.90;99.90
16060;DHT22;8134;49.552;7.632;2022-11-15T22:10:56;11.80;99.90
16060;DHT22;8134;49.552;7.632;2022-11-15T22:13:22;11.80;99.90
16060;DHT22;8134;49.552;7.632;2022-11-15T22:15:48;11.80;99.90
16060;DHT22;8134;49.552;7.632;2022-11-15T22:18:15;11.80;99.90
16060;DHT22;8134;49.552;7.632;2022-11-15T22:23:37;11.80;99.90
16060;DHT22;8134;49.552;7.632;2022-11-15T22:26:03;11.90;99.90
16060;DHT22;8134;49.552;7.632;2022-11-15T22:28:29;11.90;99.90
16060;DHT22;8134;49.552;7.632;2022-11-15T22:30:55;11.90;99.90
16060;DHT22;8134;49.552;7.632;2022-11-15T22:33:21;11.90;99.90
16060;DHT22;8134;49.552;7.632;2022-11-15T22:35:47;11.90;99.90
16060;DHT22;8134;49.552;7.632;2022-11-15T22:38:13;11.90;99.90
16060;DHT22;8134;49.552;7.632;2022-11-15T22:40:39;12.00;99.90
16060;DHT22;8134;49.552;7.632;2022-11-15T22:43:04;12.00;99.90
16060;DHT22;8134;49.552;7.632;2022-11-15T22:45:30;12.00;99.90
